logo
App data

Thrillville: Off the Rails

Thrillville™: Off the Rails lives up to its name with 20 death-defying rides! Players can build incredible coasters to leap from one track to another, launch through the air like cannonballs, blast through a burning rings of fire and more!
Store | Hub | SteamDB | Site
Developer: Frontier Publisher: Publisher: LucasArts
Genre: Action, Adventure, Racing, Simulation, Strategy
Languages: English, French, German, Italian, Spanish
Tags: Simulation (33), Strategy (23), Adventure (23), Action (23), Racing (22), Management (11), Singleplayer (8)
Category: Single-player, Local Multi-Player, Co-op, Local Co-op, Shared/Split Screen, Partial Controller Support, Steam Cloud
Release date: Oct 9, 2007
Price: $9.99
Score rank: 70% Userscore: 88% Old userscore: 88% Metascore: 70%
Owners: 20,000 .. 50,000
Followers: 853
Peak concurrent players yesterday: 9
Peak on Twitch yesterday: 31 viewers, 1 channels
YouTube stats: 108 views and 3 comments for videos uploaded last week, 1 new videos uploaded yesterday.
Playtime total: 02:29 (average) 02:21 (median)

Steam Spy is still in beta, so expect major bugs.

Owners data:

Access restricted.

This feature is only available to users with special access rights. Sorry.

If you want to proceed, you need to register or log in first and then back Steam Spy on Patreon. Look for Indie or Pro pledge.

Don't forget to use the same email as on Steam Spy!

Audience in 2 weeks:

Access restricted.

This feature is only available to users with special access rights. Sorry.

If you want to proceed, you need to register or log in first and then back Steam Spy on Patreon. Look for Indie or Pro pledge.

Don't forget to use the same email as on Steam Spy!

Peak daily concurrent players:

CCU data courtesy of SteamDB. Used with permission.

Hourly concurrent players:

Daily Twitch stats:

Hourly Twitch stats:

YouTube:

The views data is based on top 50 videos uploaded last week. Actual number of views might be more than the number shown.

The displayed number of videos uploaded yesterday is limited to 50, so if there were more videos uploaded, the number will still show 50.

If the game has commonly used word as its name (like "FEAR" or "Volume") its number of Youtube views might be wrong.

Games similar to this one:

# Game Release date
Price
Score rank
(Userscore / Metascore)
Owners
Players
Playtime (Median)
1 Night Blights Apr 15, 2016 $4.99100% (100%)0 .. 20,0000%00:00 (00:00)
2 Luxor Evolved Mar 1, 2012 $9.9997% (97%)50,000 .. 100,0000%00:00 (00:00)
3 Hustle Cat Mar 16, 2016 $19.9997% (97%)20,000 .. 50,0000%00:00 (00:00)
4 Carrie's Order Up! Sep 13, 2016 $2.9997% (97%)0 .. 20,0000%00:00 (00:00)
5 Beat Da Beat Mar 10, 2016 $1.9993% (95%)0 .. 20,0000%00:00 (00:00)
6 A Good Snowman Is Hard To Build Feb 25, 2015 $9.9993% (95%)0 .. 20,0000%00:00 (00:00)
7 Chip's Challenge 2 May 28, 2015 $4.9990% (94%)20,000 .. 50,0004.35%04:28 (01:29)
8 [the Sequence] Mar 30, 2016 $1.9987% (93%)0 .. 20,0000%00:00 (00:00)
9 12 Labours of Hercules Mar 23, 2015 $2.9987% (93%)100,000 .. 200,0000.37%00:14 (00:04)
10 Girls Like Robots Feb 14, 2014 $6.9987% (93%)100,000 .. 200,0000%00:00 (00:00)
11 Tennis in the Face Nov 18, 2015 $4.9987% (93%)0 .. 20,0000%00:00 (00:00)
12 Swapperoo Dec 18, 2015 $4.99N/A (N/A)0 .. 20,0000%00:00 (00:00)
13 Think To Die 3 Mar 27, 2017 $4.99N/A (N/A)0 .. 20,0000%00:00 (00:00)
14 SquareCells Dec 7, 2015 $2.9983% (92%)20,000 .. 50,0000%00:00 (00:00)
15 Frog Climbers Oct 6, 2016 $6.9983% (92%)50,000 .. 100,0000%00:00 (00:00)
16 Grapple Mar 9, 2015 $7.9983% (92%)20,000 .. 50,0000%00:00 (00:00)
17 Earthtongue Apr 27, 2015 $4.9979% (91%)0 .. 20,0000%00:00 (00:00)
18 The Jackbox Party Pack Nov 26, 2014 $24.9979% (91%)200,000 .. 500,0003.7%00:17 (00:11)
19 Tribloos 2 Jan 12, 2013 $4.9979% (91%)100,000 .. 200,0002.75%04:16 (05:44)
20 Koala Kids Jun 22, 2015 $0.9979% (91%)20,000 .. 50,0000%00:00 (00:00)
21 On Rusty Trails Jun 13, 2016 $12.9976% (90%/77%)50,000 .. 100,0001.02%00:32 (00:10)
22 This Starry Midnight We Make Jun 1, 2015 $9.99N/A (N/A)0 .. 20,0000%00:00 (00:00)
23 Griptape Backbone May 5, 2017 Free73% (89%)0 .. 20,0005.88%16:55 (05:38)
24 Clock Simulator Jul 20, 2016 $0.9973% (89%)20,000 .. 50,0000%00:00 (00:00)
25 Bob Was Hungry Aug 19, 2015 $9.9973% (89%)20,000 .. 50,0000%00:00 (00:00)
26 Vampires: Guide Them to Safety! Oct 22, 2014 $4.99N/A (N/A)0 .. 20,0000%00:00 (00:00)
27 The Reject Demon: Toko Chapter 0 — Prelude May 9, 2015 $4.9973% (89%)0 .. 20,0000%00:00 (00:00)
28 Loot Hound Nov 17, 2015 $4.9973% (89%)0 .. 20,0000%00:00 (00:00)
29 12 Labours of Hercules V: Kids of Hellas (Platinum Edition) Jun 17, 2016 $2.9973% (89%)20,000 .. 50,0001.72%02:02 (00:40)
30 Without Within 2 Nov 9, 2015 $4.9970% (88%)0 .. 20,0000%00:00 (00:00)
31 Forgotten, Not Lost - A Kinetic Novel Apr 2, 2016 $1.9970% (88%)20,000 .. 50,0004.63%04:25 (04:39)
32 Recursion Deluxe Feb 12, 2016 $4.9970% (88%)0 .. 20,0000%00:00 (00:00)
33 In Between Aug 21, 2015 $11.9970% (88%/68%)20,000 .. 50,0000.66%00:05 (00:01)
34 Darkarta: A Broken Heart's Quest Collector's Edition Mar 8, 2017 $5.9970% (88%)20,000 .. 50,0000%00:00 (00:00)
35 12 Labours of Hercules IV: Mother Nature (Platinum Edition) Dec 25, 2015 $2.9970% (88%)20,000 .. 50,0000%00:00 (00:00)
36 Cursed Sight Aug 3, 2015 $5.9967% (87%)0 .. 20,0000%00:00 (00:00)
37 Oozi: Earth Adventure Dec 5, 2013 $4.9965% (86%/66%)50,000 .. 100,0000%00:00 (00:00)
38 Army of Pixels Oct 29, 2015 $4.99N/A (N/A)0 .. 20,0000%00:00 (00:00)
39 Anode Oct 5, 2015 $3.9965% (86%)0 .. 20,0000%00:00 (00:00)
40 Asphyxia Aug 4, 2015 $5.9965% (86%)20,000 .. 50,0000%00:00 (00:00)
41 Alpha Runner Sep 2, 2015 $0.4965% (86%)50,000 .. 100,0000.94%01:06 (00:41)
42 Sophie's Curse Mar 16, 2016 $4.9965% (86%)20,000 .. 50,0000%00:00 (00:00)
43 BAD END Nov 25, 2015 $1.9962% (85%)0 .. 20,0002.22%01:00 (00:20)
44 Dead Man's Draw Feb 6, 2014 $6.9962% (85%)20,000 .. 50,0000%00:00 (00:00)
45 Magma Tsunami Jun 1, 2016 $0.9959% (84%)100,000 .. 200,0000%00:00 (00:00)
46 RePete Nov 1, 2015 $1.99N/A (N/A)0 .. 20,0000%00:00 (00:00)
47 Sentinel 4: Dark Star Aug 13, 2015 $6.99N/A (N/A)0 .. 20,0000%00:00 (00:00)
48 Governor of Poker 2 - Premium Edition Oct 11, 2010 $14.9959% (84%)20,000 .. 50,0000%00:00 (00:00)
49 Cyto Jul 10, 2014 $3.9957% (83%)20,000 .. 50,0000%00:00 (00:00)
50 Cute Things Dying Violently Sep 2, 2015 $2.9957% (83%)0 .. 20,0000%00:00 (00:00)
51 Gridworld Dec 29, 2015 $0.9957% (83%)0 .. 20,0000%00:00 (00:00)
52 Job the Leprechaun Jul 31, 2015 $0.9954% (82%)20,000 .. 50,0000%00:00 (00:00)
53 Air Missions: HIND Mar 21, 2016 $16.9954% (82%)0 .. 20,0000%00:00 (00:00)
54 Steam and Metal Feb 9, 2015 $4.99N/A (N/A)0 .. 20,0000%00:00 (00:00)
55 Archimedes Oct 6, 2016 $2.9952% (81%)50,000 .. 100,0000%00:00 (00:00)
56 Star Sky - ブルームーン Oct 23, 2015 $3.9952% (81%)0 .. 20,0000%00:00 (00:00)
57 Stay Alight Mar 2, 2015 $3.9952% (81%)20,000 .. 50,0000%00:00 (00:00)
58 Dungeon Painter Studio Feb 26, 2017 $14.9952% (81%)20,000 .. 50,0000%00:00 (00:00)
59 Space Drifters 2D Mar 28, 2016 $0.99N/A (N/A)0 .. 20,0000%00:00 (00:00)
60 Collisions Jul 28, 2015 $3.9952% (81%)0 .. 20,0000%00:00 (00:00)
61 Rescue Team 5 Sep 30, 2015 $3.9950% (80%)20,000 .. 50,0000%00:00 (00:00)
62 Terraform May 8, 2015 $2.99N/A (N/A)0 .. 20,0000%00:00 (00:00)
63 Egg Returns Home May 5, 2015 $1.9948% (79%)20,000 .. 50,0000%00:00 (00:00)
64 hackmud Sep 22, 2016 $19.9948% (79%)0 .. 20,00027.27%04:12 (03:06)
65 The Survey Oct 27, 2016 $4.9948% (79%)0 .. 20,0005%08:01 (02:40)
66 The Last NightMary - A Lenda do Cabeça de Cuia Nov 2, 2015 $0.5148% (79%)50,000 .. 100,0001.01%02:02 (00:40)
67 Farm for your Life Jun 5, 2013 $9.9948% (79%)50,000 .. 100,0000%00:00 (00:00)
68 GamersGoMakers Aug 8, 2014 $9.9948% (79%)0 .. 20,0000%00:00 (00:00)
69 Fate Tectonics Sep 9, 2015 $9.9948% (79%)0 .. 20,0000%00:00 (00:00)
70 Particulars Nov 19, 2014 $5.9946% (78%/74%)20,000 .. 50,0000%00:00 (00:00)
71 Optika Aug 26, 2016 $4.9946% (78%)20,000 .. 50,0000%00:00 (00:00)
72 Paranormal State: Poison Spring Nov 26, 2013 $9.9946% (78%)20,000 .. 50,0000%00:00 (00:00)
73 SinaRun Oct 26, 2015 $2.9944% (77%)0 .. 20,0000%00:00 (00:00)
74 Neon Prism Nov 18, 2016 $4.9944% (77%)50,000 .. 100,0000.79%00:52 (00:34)
75 The Deletion Jul 30, 2015 $1.9942% (76%)0 .. 20,0000%00:00 (00:00)
76 Pixel Puzzles 2: Birds Feb 20, 2015 $9.9942% (76%)100,000 .. 200,0003.03%04:25 (06:24)
77 Caravanserail Feb 26, 2016 $2.99N/A (N/A)0 .. 20,0000%00:00 (00:00)
78 Beeftacular Aug 26, 2016 $2.9940% (75%)0 .. 20,0000%00:00 (00:00)
79 Kombine Oct 14, 2016 $0.4940% (75%)0 .. 20,0000%00:00 (00:00)
80 Where are my Internets? Dec 16, 2016 $2.99N/A (N/A)0 .. 20,0000%00:00 (00:00)
81 GO AWAY, THERE'S KUMIS OVER THERE! Oct 28, 2016 $0.9938% (74%)50,000 .. 100,0000%00:00 (00:00)
82 Totally Unbalanced Jul 29, 2016 $2.9938% (74%)0 .. 20,0004.17%03:55 (01:18)
83 Turbo Pug 3D Sep 20, 2016 $1.9938% (74%)200,000 .. 500,0000.24%02:06 (01:23)
84 Western FPS Mar 13, 2017 $0.99N/A (N/A)100,000 .. 200,0000.31%00:22 (00:07)
85 ConflictCraft Dec 8, 2016 $2.99N/A (N/A)20,000 .. 50,0000%00:00 (00:00)
86 Pester Jan 25, 2013 $0.9935% (72%)100,000 .. 200,0001.16%04:09 (03:23)
87 MOAI 2: Path to Another World Apr 11, 2015 $7.99N/A (N/A)0 .. 20,0008.33%05:33 (01:51)
88 Laserlife Sep 22, 2015 $14.9933% (71%)0 .. 20,0000%00:00 (00:00)
89 Lift It Jan 20, 2017 $4.99N/A (N/A)20,000 .. 50,0000%00:00 (00:00)
90 Zipple World Jan 19, 2016 $4.99N/A (N/A)0 .. 20,0000%00:00 (00:00)
91 Wanda - A Beautiful Apocalypse Jun 3, 2016 $9.9930% (69%)50,000 .. 100,0001.37%07:52 (05:14)
92 Sinister City Oct 18, 2014 $0.9929% (68%)100,000 .. 200,0000%00:00 (00:00)
93 Love in the Glen Jun 9, 2016 $5.99N/A (N/A)20,000 .. 50,0000%00:00 (00:00)
94 1931: Scheherazade at the Library of Pergamum Mar 26, 2015 $2.4929% (68%)0 .. 20,0000%00:00 (00:00)
95 Marble Duel Nov 12, 2015 $4.9927% (67%)100,000 .. 200,0004.39%02:44 (03:45)
96 Fergus The Fly Feb 1, 2017 $0.9927% (67%)200,000 .. 500,0000.33%12:45 (11:42)
97 Mind Games Mar 4, 2016 $2.9927% (67%)0 .. 20,0000%00:00 (00:00)
98 One Last Chance Apr 7, 2016 $3.9927% (67%)0 .. 20,0001.49%01:31 (00:30)
99 Racecraft Mar 4, 2016 $19.9927% (67%)20,000 .. 50,0000%00:00 (00:00)
100 Herding Dog Dec 25, 2015 $2.99N/A (N/A)0 .. 20,0000%00:00 (00:00)
101 Broken Dreams Feb 19, 2016 $1.9926% (66%)200,000 .. 500,0000.27%05:01 (02:05)
102 Alter World May 29, 2015 $1.9925% (65%)100,000 .. 200,0000.58%02:56 (01:17)
103 Winexy Jan 13, 2017 $0.9923% (64%)20,000 .. 50,0000%00:00 (00:00)
104 XCavalypse Jun 6, 2016 $5.99N/A (N/A)0 .. 20,0000%00:00 (00:00)
105 FBI MANIA Jan 31, 2017 $0.99N/A (N/A)50,000 .. 100,0000%00:00 (00:00)
106 Won't You Be My Laser? Sep 2, 2016 $0.99N/A (N/A)0 .. 20,0000%00:00 (00:00)
107 Highborn Feb 19, 2013 $1.99N/A (N/A)0 .. 20,0000%00:00 (00:00)
108 Power of Love Jul 21, 2015 $4.9920% (61%)20,000 .. 50,0001.61%03:37 (01:30)
109 Goodnight Butcher Dec 18, 2015 $1.99N/A (N/A)20,000 .. 50,0000%00:00 (00:00)
110 Bloop Reloaded Feb 6, 2015 $9.9920% (61%)100,000 .. 200,0001.18%04:37 (05:27)
111 Football Blitz Jan 4, 2017 $3.99N/A (N/A)20,000 .. 50,0000%00:00 (00:00)
112 Star Chronicles: Delta Quadrant Jul 7, 2015 $0.9917% (58%)200,000 .. 500,0000.13%00:57 (00:19)
113 Dance Magic Feb 15, 2016 $9.99N/A (N/A)0 .. 20,0000%00:00 (00:00)
114 Bunny & Piggy Dec 1, 2016 $0.4916% (57%)50,000 .. 100,0002.08%02:37 (02:11)
115 Way of Gold and Steel Aug 17, 2015 $8.9915% (56%)0 .. 20,0000%00:00 (00:00)
116 Backgammon Blitz Nov 12, 2015 $3.9914% (54%)0 .. 20,0000%00:00 (00:00)
117 King's Guard TD Jun 8, 2016 $0.9914% (54%)100,000 .. 200,0001.09%00:58 (00:42)
118 Sky to Fly: Soulless Leviathan Jul 22, 2016 $3.9913% (53%)0 .. 20,0005%04:34 (01:31)
119 Drizzlepath Mar 12, 2015 $2.9913% (53%)0 .. 20,0000%00:00 (00:00)
120 Wildlife Park 2 - Dino World Mar 30, 2012 $3.9913% (53%)20,000 .. 50,0000%00:00 (00:00)
121 Reptilian Rebellion Aug 8, 2016 $0.4913% (53%)20,000 .. 50,0000%00:00 (00:00)
122 Color Syndrome Jun 20, 2016 $0.9912% (52%)20,000 .. 50,0001.87%01:39 (01:27)
123 Quantum Rush Champions Dec 4, 2014 $9.9911% (50%)20,000 .. 50,0001.15%00:07 (00:02)
124 Rage Runner May 16, 2014 $4.99N/A (N/A)20,000 .. 50,0000%00:00 (00:00)
125 Astro Emporia Feb 2, 2015 $0.499% (47%)0 .. 20,0000%00:00 (00:00)
126 Autumn Sep 23, 2014 $2.999% (46%)50,000 .. 100,0000%00:00 (00:00)
127 Melting Hearts: Our Love Will Grow 2 Apr 29, 2016 $4.999% (46%)0 .. 20,0000%00:00 (00:00)
128 Ninja Stealth 2 Jan 30, 2017 $1.998% (45%)20,000 .. 50,0003.17%03:35 (02:23)
129 iREC Jan 16, 2017 Free7% (41%)50,000 .. 100,0002.94%66:21 (66:11)
130 Streets of Chaos Jan 23, 2015 $0.996% (40%)100,000 .. 200,0000%00:00 (00:00)
131 European Ship Simulator Nov 4, 2016 $19.995% (38%)20,000 .. 50,0005.26%00:44 (00:14)
132 Space Hotel Jan 4, 2017 $1.99N/A (N/A)0 .. 20,0000%00:00 (00:00)
133 Burst Mar 14, 2016 $1.99N/A (N/A)100,000 .. 200,0000%00:00 (00:00)
134 Hide and Secret Treasure of the Ages Mar 15, 2007 $2.99N/A (N/A)0 .. 20,0000%00:00 (00:00)
135 Labyrinth Simulator Sep 21, 2015 $4.993% (31%)0 .. 20,0000%00:00 (00:00)
136 Industry Transporters Aug 31, 2015 $9.99N/A (N/A)0 .. 20,0000%00:00 (00:00)
137 Robot vs Birds Zombies Jun 1, 2013 $0.993% (31%)0 .. 20,0000%00:00 (00:00)
138 Hyposphere May 5, 2016 $2.993% (28%)100,000 .. 200,0000.24%01:26 (00:28)
139 Cyber Team Manager Jan 8, 2016 $4.992% (20%)0 .. 20,0000%00:00 (00:00)
140 One way to exit Mar 12, 2016 $1.99N/A (N/A)200,000 .. 500,0000%00:00 (00:00)

Owners of this game also own:

Access restricted.

This feature is only available to users with special access rights. Sorry.

If you want to proceed, you need to register or log in first and then back Steam Spy on Patreon. Look for Indie or Pro pledge.

Don't forget to use the same email as on Steam Spy!

Playtime distribution:

Access restricted.

This feature is only available to users with special access rights. Sorry.

If you want to proceed, you need to register or log in first and then back Steam Spy on Patreon. Look for Indie or Pro pledge.

Don't forget to use the same email as on Steam Spy!

Playtime (2 weeks):

Access restricted.

This feature is only available to users with special access rights. Sorry.

If you want to proceed, you need to register or log in first and then back Steam Spy on Patreon. Look for Indie or Pro pledge.

Don't forget to use the same email as on Steam Spy!

User reviews:

Login required.

Please register or log in to see this information.